sensor_id;sensor_type;location;lat;lon;timestamp;temperature;humidity
73643;DHT22;61938;48.652;9.292;2023-02-11T00:01:27;-2.40;99.90
73643;DHT22;61938;48.652;9.292;2023-02-11T00:03:53;-2.60;99.90
73643;DHT22;61938;48.652;9.292;2023-02-11T00:06:18;-2.70;99.90
73643;DHT22;61938;48.652;9.292;2023-02-11T00:08:45;-2.70;99.90
73643;DHT22;61938;48.652;9.292;2023-02-11T00:11:18;-2.80;99.90
73643;DHT22;61938;48.652;9.292;2023-02-11T00:13:45;-2.80;99.90
73643;DHT22;61938;48.652;9.292;2023-02-11T00:16:13;-2.80;99.90
73643;DHT22;61938;48.652;9.292;2023-02-11T00:18:40;-2.80;99.90
73643;DHT22;61938;48.652;9.292;2023-02-11T00:21:09;-2.90;99.90
73643;DHT22;61938;48.652;9.292;2023-02-11T00:23:36;-2.90;99.90
73643;DHT22;61938;48.652;9.292;2023-02-11T00:26:02;-2.90;99.90
73643;DHT22;61938;48.652;9.292;2023-02-11T00:28:27;-3.00;99.90
73643;DHT22;61938;48.652;9.292;2023-02-11T00:30:54;-3.00;99.90
73643;DHT22;61938;48.652;9.292;2023-02-11T00:33:20;-3.00;99.90
73643;DHT22;61938;48.652;9.292;2023-02-11T00:35:45;-3.00;99.90
73643;DHT22;61938;48.652;9.292;2023-02-11T00:38:11;-2.90;99.90
73643;DHT22;61938;48.652;9.292;2023-02-11T00:40:36;-2.90;99.90
73643;DHT22;61938;48.652;9.292;2023-02-11T00:43:02;-2.90;99.90
73643;DHT22;61938;48.652;9.292;2023-02-11T00:45:27;-2.90;99.90
73643;DHT22;61938;48.652;9.292;2023-02-11T00:47:55;-2.90;99.90
73643;DHT22;61938;48.652;9.292;2023-02-11T00:50:20;-3.00;99.90
73643;DHT22;61938;48.652;9.292;2023-02-11T00:52:46;-3.00;99.90
73643;DHT22;61938;48.652;9.292;2023-02-11T00:55:12;-3.10;99.90
73643;DHT22;61938;48.652;9.292;2023-02-11T00:57:37;-3.00;99.90
73643;DHT22;61938;48.652;9.292;2023-02-11T01:00:06;-3.10;99.90
73643;DHT22;61938;48.652;9.292;2023-02-11T01:02:32;-3.00;99.90
73643;DHT22;61938;48.652;9.292;2023-02-11T01:04:57;-3.00;99.90
73643;DHT22;61938;48.652;9.292;2023-02-11T01:07:24;-3.00;99.90
73643;DHT22;61938;48.652;9.292;2023-02-11T01:09:50;-3.00;99.90
73643;DHT22;61938;48.652;9.292;2023-02-11T01:12:15;-3.10;99.90
73643;DHT22;61938;48.652;9.292;2023-02-11T01:14:41;-3.10;99.90
73643;DHT22;61938;48.652;9.292;2023-02-11T01:17:07;-3.20;99.90
73643;DHT22;61938;48.652;9.292;2023-02-11T01:19:32;-3.20;99.90
73643;DHT22;61938;48.652;9.292;2023-02-11T01:21:58;-3.20;99.90
73643;DHT22;61938;48.652;9.292;2023-02-11T01:24:23;-3.20;99.90
73643;DHT22;61938;48.652;9.292;2023-02-11T01:26:49;-3.30;99.90
73643;DHT22;61938;48.652;9.292;2023-02-11T01:29:14;-3.20;99.90
73643;DHT22;61938;48.652;9.292;2023-02-11T01:31:40;-3.30;99.90
73643;DHT22;61938;48.652;9.292;2023-02-11T01:34:05;-3.20;99.90
73643;DHT22;61938;48.652;9.292;2023-02-11T01:36:31;-3.20;99.90
73643;DHT22;61938;48.652;9.292;2023-02-11T01:38:57;-3.30;99.90
73643;DHT22;61938;48.652;9.292;2023-02-11T01:41:22;-3.30;99.90
73643;DHT22;61938;48.652;9.292;2023-02-11T01:43:49;-3.30;99.90
73643;DHT22;61938;48.652;9.292;2023-02-11T01:46:36;-3.30;99.90
73643;DHT22;61938;48.652;9.292;2023-02-11T01:49:56;-3.30;99.90
73643;DHT22;61938;48.652;9.292;2023-02-11T01:52:18;-3.30;99.90
73643;DHT22;61938;48.652;9.292;2023-02-11T01:54:49;-3.30;99.90
73643;DHT22;61938;48.652;9.292;2023-02-11T01:57:36;-3.30;99.90
73643;DHT22;61938;48.652;9.292;2023-02-11T02:00:23;-3.30;99.90
73643;DHT22;61938;48.652;9.292;2023-02-11T02:10:26;-3.30;99.90
73643;DHT22;61938;48.652;9.292;2023-02-11T02:12:53;-3.30;99.90
73643;DHT22;61938;48.652;9.292;2023-02-11T02:15:24;-3.30;99.90
73643;DHT22;61938;48.652;9.292;2023-02-11T02:23:50;-3.30;99.90
73643;DHT22;61938;48.652;9.292;2023-02-11T02:26:25;-3.30;99.90
73643;DHT22;61938;48.652;9.292;2023-02-11T02:34:50;-3.40;99.90
73643;DHT22;61938;48.652;9.292;2023-02-11T02:37:29;-3.40;99.90
73643;DHT22;61938;48.652;9.292;2023-02-11T02:39:58;-3.40;99.90
73643;DHT22;61938;48.652;9.292;2023-02-11T02:42:26;-3.40;99.90
73643;DHT22;61938;48.652;9.292;2023-02-11T02:44:54;-3.40;99.90
73643;DHT22;61938;48.652;9.292;2023-02-11T02:47:20;-3.40;99.90
73643;DHT22;61938;48.652;9.292;2023-02-11T02:49:45;-3.40;99.90
73643;DHT22;61938;48.652;9.292;2023-02-11T02:52:46;-3.30;99.90
73643;DHT22;61938;48.652;9.292;2023-02-11T02:55:32;-3.30;99.90
73643;DHT22;61938;48.652;9.292;2023-02-11T02:58:13;-3.30;99.90
73643;DHT22;61938;48.652;9.292;2023-02-11T03:00:55;-3.30;99.90
73643;DHT22;61938;48.652;9.292;2023-02-11T03:06:26;-3.20;99.90
73643;DHT22;61938;48.652;9.292;2023-02-11T03:09:05;-3.20;99.90
73643;DHT22;61938;48.652;9.292;2023-02-11T03:11:33;-3.20;99.90
73643;DHT22;61938;48.652;9.292;2023-02-11T03:14:02;-3.20;99.90
73643;DHT22;61938;48.652;9.292;2023-02-11T03:16:29;-3.20;99.90
73643;DHT22;61938;48.652;9.292;2023-02-11T03:19:05;-3.20;99.90
73643;DHT22;61938;48.652;9.292;2023-02-11T03:21:34;-2.90;99.90
73643;DHT22;61938;48.652;9.292;2023-02-11T03:24:06;-3.10;99.90
73643;DHT22;61938;48.652;9.292;2023-02-11T03:26:52;-3.10;99.90
73643;DHT22;61938;48.652;9.292;2023-02-11T03:29:59;-3.10;99.90
73643;DHT22;61938;48.652;9.292;2023-02-11T03:32:28;-3.10;99.90
73643;DHT22;61938;48.652;9.292;2023-02-11T03:34:58;-3.10;99.90
73643;DHT22;61938;48.652;9.292;2023-02-11T03:37:34;-3.10;99.90
73643;DHT22;61938;48.652;9.292;2023-02-11T03:40:09;-3.10;99.90
73643;DHT22;61938;48.652;9.292;2023-02-11T03:42:42;-3.10;99.90
73643;DHT22;61938;48.652;9.292;2023-02-11T03:45:11;-3.10;99.90
73643;DHT22;61938;48.652;9.292;2023-02-11T03:47:40;-3.10;99.90
73643;DHT22;61938;48.652;9.292;2023-02-11T03:50:07;-3.10;99.90
73643;DHT22;61938;48.652;9.292;2023-02-11T03:52:36;-3.10;99.90
73643;DHT22;61938;48.652;9.292;2023-02-11T03:55:06;-3.10;99.90
73643;DHT22;61938;48.652;9.292;2023-02-11T03:57:33;-3.10;99.90
73643;DHT22;61938;48.652;9.292;2023-02-11T03:59:59;-3.10;99.90
73643;DHT22;61938;48.652;9.292;2023-02-11T04:02:29;-3.00;99.90
73643;DHT22;61938;48.652;9.292;2023-02-11T04:04:56;-3.00;99.90
73643;DHT22;61938;48.652;9.292;2023-02-11T04:07:22;-2.90;99.90
73643;DHT22;61938;48.652;9.292;2023-02-11T04:09:48;-2.90;99.90
73643;DHT22;61938;48.652;9.292;2023-02-11T04:12:14;-2.90;99.90
73643;DHT22;61938;48.652;9.292;2023-02-11T04:14:39;-2.80;99.90
73643;DHT22;61938;48.652;9.292;2023-02-11T04:17:05;-2.80;99.90
73643;DHT22;61938;48.652;9.292;2023-02-11T04:19:30;-2.70;99.90
73643;DHT22;61938;48.652;9.292;2023-02-11T04:21:56;-2.70;99.90
73643;DHT22;61938;48.652;9.292;2023-02-11T04:24:22;-2.60;99.90
73643;DHT22;61938;48.652;9.292;2023-02-11T04:26:47;-2.50;99.90
73643;DHT22;61938;48.652;9.292;2023-02-11T04:29:13;-2.50;99.90
73643;DHT22;61938;48.652;9.292;2023-02-11T04:31:38;-2.50;99.90
73643;DHT22;61938;48.652;9.292;2023-02-11T04:34:04;-2.40;99.90
73643;DHT22;61938;48.652;9.292;2023-02-11T04:36:29;-2.40;99.90
73643;DHT22;61938;48.652;9.292;2023-02-11T04:38:55;-2.30;99.90
73643;DHT22;61938;48.652;9.292;2023-02-11T04:41:20;-2.30;99.90
73643;DHT22;61938;48.652;9.292;2023-02-11T04:43:46;-2.30;99.90
73643;DHT22;61938;48.652;9.292;2023-02-11T04:46:11;-2.30;99.90
73643;DHT22;61938;48.652;9.292;2023-02-11T04:48:37;-2.30;99.90
73643;DHT22;61938;48.652;9.292;2023-02-11T04:51:03;-2.30;99.90
73643;DHT22;61938;48.652;9.292;2023-02-11T04:53:28;-2.30;99.90
73643;DHT22;61938;48.652;9.292;2023-02-11T04:55:54;-2.20;99.90
73643;DHT22;61938;48.652;9.292;2023-02-11T04:58:19;-2.20;99.90
73643;DHT22;61938;48.652;9.292;2023-02-11T05:00:46;-2.20;99.90
73643;DHT22;61938;48.652;9.292;2023-02-11T05:03:12;-2.10;99.90
73643;DHT22;61938;48.652;9.292;2023-02-11T05:05:41;-2.10;99.90
73643;DHT22;61938;48.652;9.292;2023-02-11T05:08:08;-2.10;99.90
73643;DHT22;61938;48.652;9.292;2023-02-11T05:10:33;-2.00;99.90
73643;DHT22;61938;48.652;9.292;2023-02-11T05:12:59;-2.00;99.90
73643;DHT22;61938;48.652;9.292;2023-02-11T05:15:25;-2.00;99.90
73643;DHT22;61938;48.652;9.292;2023-02-11T05:17:51;-2.00;99.90
73643;DHT22;61938;48.652;9.292;2023-02-11T05:20:16;-1.90;99.90
73643;DHT22;61938;48.652;9.292;2023-02-11T05:22:42;-1.90;99.90
73643;DHT22;61938;48.652;9.292;2023-02-11T05:25:07;-1.90;99.90
73643;DHT22;61938;48.652;9.292;2023-02-11T05:27:33;-1.90;99.90
73643;DHT22;61938;48.652;9.292;2023-02-11T05:29:58;-1.90;99.90
73643;DHT22;61938;48.652;9.292;2023-02-11T05:32:24;-1.90;99.90
73643;DHT22;61938;48.652;9.292;2023-02-11T05:34:49;-1.90;99.90
73643;DHT22;61938;48.652;9.292;2023-02-11T05:37:15;-1.90;99.90
73643;DHT22;61938;48.652;9.292;2023-02-11T05:39:40;-1.90;99.90
73643;DHT22;61938;48.652;9.292;2023-02-11T05:42:06;-1.80;99.90
73643;DHT22;61938;48.652;9.292;2023-02-11T05:44:32;-1.90;99.90
73643;DHT22;61938;48.652;9.292;2023-02-11T05:46:57;-1.90;99.90
73643;DHT22;61938;48.652;9.292;2023-02-11T05:49:23;-1.90;99.90
73643;DHT22;61938;48.652;9.292;2023-02-11T05:51:48;-1.90;99.90
73643;DHT22;61938;48.652;9.292;2023-02-11T05:54:14;-1.90;99.90
73643;DHT22;61938;48.652;9.292;2023-02-11T05:56:39;-1.90;99.90
73643;DHT22;61938;48.652;9.292;2023-02-11T05:59:05;-1.80;99.90
73643;DHT22;61938;48.652;9.292;2023-02-11T06:01:30;-1.90;99.90
73643;DHT22;61938;48.652;9.292;2023-02-11T06:03:56;-1.80;99.90
73643;DHT22;61938;48.652;9.292;2023-02-11T06:06:22;-1.80;99.90
73643;DHT22;61938;48.652;9.292;2023-02-11T06:08:48;-1.80;99.90
73643;DHT22;61938;48.652;9.292;2023-02-11T06:11:15;-1.80;99.90
73643;DHT22;61938;48.652;9.292;2023-02-11T06:13:40;-1.80;99.90
73643;DHT22;61938;48.652;9.292;2023-02-11T06:16:06;-1.80;99.90
73643;DHT22;61938;48.652;9.292;2023-02-11T06:18:31;-1.70;99.90
73643;DHT22;61938;48.652;9.292;2023-02-11T06:20:58;-1.70;99.90
73643;DHT22;61938;48.652;9.292;2023-02-11T06:23:24;-1.70;99.90
73643;DHT22;61938;48.652;9.292;2023-02-11T06:25:50;-1.70;99.90
73643;DHT22;61938;48.652;9.292;2023-02-11T06:28:16;-1.60;99.90
73643;DHT22;61938;48.652;9.292;2023-02-11T06:30:41;-1.60;99.90
73643;DHT22;61938;48.652;9.292;2023-02-11T06:33:07;-1.60;99.90
73643;DHT22;61938;48.652;9.292;2023-02-11T06:35:32;-1.60;99.90
73643;DHT22;61938;48.652;9.292;2023-02-11T06:38:00;-1.60;99.90
73643;DHT22;61938;48.652;9.292;2023-02-11T06:40:25;-1.60;99.90
73643;DHT22;61938;48.652;9.292;2023-02-11T06:42:51;-1.50;99.90
73643;DHT22;61938;48.652;9.292;2023-02-11T06:45:17;-1.50;99.90
73643;DHT22;61938;48.652;9.292;2023-02-11T06:47:43;-1.50;99.90
73643;DHT22;61938;48.652;9.292;2023-02-11T06:50:12;-1.50;99.90
73643;DHT22;61938;48.652;9.292;2023-02-11T06:52:38;-1.50;99.90
73643;DHT22;61938;48.652;9.292;2023-02-11T06:55:03;-1.40;99.90
73643;DHT22;61938;48.652;9.292;2023-02-11T06:57:30;-1.40;99.90
73643;DHT22;61938;48.652;9.292;2023-02-11T06:59:56;-1.40;99.90
73643;DHT22;61938;48.652;9.292;2023-02-11T07:02:21;-1.30;99.90
73643;DHT22;61938;48.652;9.292;2023-02-11T07:04:47;-1.30;99.90
73643;DHT22;61938;48.652;9.292;2023-02-11T07:07:12;-1.30;99.90
73643;DHT22;61938;48.652;9.292;2023-02-11T07:09:38;-1.20;99.90
73643;DHT22;61938;48.652;9.292;2023-02-11T07:12:03;-1.20;99.90
73643;DHT22;61938;48.652;9.292;2023-02-11T07:14:29;-1.20;99.90
73643;DHT22;61938;48.652;9.292;2023-02-11T07:16:54;-1.10;99.90
73643;DHT22;61938;48.652;9.292;2023-02-11T07:19:20;-1.10;99.90
73643;DHT22;61938;48.652;9.292;2023-02-11T07:21:45;-1.10;99.90
73643;DHT22;61938;48.652;9.292;2023-02-11T07:24:12;-1.00;99.90
73643;DHT22;61938;48.652;9.292;2023-02-11T07:26:38;-1.00;99.90
73643;DHT22;61938;48.652;9.292;2023-02-11T07:29:04;-0.80;99.90
73643;DHT22;61938;48.652;9.292;2023-02-11T07:31:30;-0.90;99.90
73643;DHT22;61938;48.652;9.292;2023-02-11T07:33:58;-0.90;99.90
73643;DHT22;61938;48.652;9.292;2023-02-11T07:36:24;-0.90;99.90
73643;DHT22;61938;48.652;9.292;2023-02-11T07:38:50;-0.90;99.90
73643;DHT22;61938;48.652;9.292;2023-02-11T07:41:18;-0.70;99.90
73643;DHT22;61938;48.652;9.292;2023-02-11T07:43:44;-0.70;99.90
73643;DHT22;61938;48.652;9.292;2023-02-11T07:46:15;-0.70;99.90
73643;DHT22;61938;48.652;9.292;2023-02-11T07:48:41;-0.70;99.90
73643;DHT22;61938;48.652;9.292;2023-02-11T07:51:15;-0.70;99.90
73643;DHT22;61938;48.652;9.292;2023-02-11T07:53:42;-0.40;99.90
73643;DHT22;61938;48.652;9.292;2023-02-11T07:56:09;-0.20;99.90
73643;DHT22;61938;48.652;9.292;2023-02-11T07:58:35;0.00;99.90
73643;DHT22;61938;48.652;9.292;2023-02-11T08:01:06;0.30;99.90
73643;DHT22;61938;48.652;9.292;2023-02-11T08:03:32;0.60;99.90
73643;DHT22;61938;48.652;9.292;2023-02-11T08:06:05;0.80;99.90
73643;DHT22;61938;48.652;9.292;2023-02-11T08:08:31;0.80;99.90
73643;DHT22;61938;48.652;9.292;2023-02-11T08:10:57;1.10;99.90
73643;DHT22;61938;48.652;9.292;2023-02-11T08:13:23;1.30;99.90
73643;DHT22;61938;48.652;9.292;2023-02-11T08:15:51;1.20;99.90
73643;DHT22;61938;48.652;9.292;2023-02-11T08:18:16;1.10;99.90
73643;DHT22;61938;48.652;9.292;2023-02-11T08:20:42;0.90;99.90
73643;DHT22;61938;48.652;9.292;2023-02-11T08:23:07;0.80;99.90
73643;DHT22;61938;48.652;9.292;2023-02-11T08:25:33;0.70;99.90
73643;DHT22;61938;48.652;9.292;2023-02-11T08:27:58;0.70;99.90
73643;DHT22;61938;48.652;9.292;2023-02-11T08:30:26;0.70;99.90
73643;DHT22;61938;48.652;9.292;2023-02-11T08:32:51;0.80;99.90
73643;DHT22;61938;48.652;9.292;2023-02-11T08:35:17;0.90;99.90
73643;DHT22;61938;48.652;9.292;2023-02-11T08:37:42;0.90;99.90
73643;DHT22;61938;48.652;9.292;2023-02-11T08:40:08;0.90;99.90
73643;DHT22;61938;48.652;9.292;2023-02-11T08:42:34;1.00;99.90
73643;DHT22;61938;48.652;9.292;2023-02-11T08:44:59;1.10;99.90
73643;DHT22;61938;48.652;9.292;2023-02-11T08:47:25;1.10;99.90
73643;DHT22;61938;48.652;9.292;2023-02-11T08:49:50;1.10;99.90
73643;DHT22;61938;48.652;9.292;2023-02-11T08:52:16;1.20;99.90
73643;DHT22;61938;48.652;9.292;2023-02-11T08:54:41;1.20;99.90
73643;DHT22;61938;48.652;9.292;2023-02-11T08:57:07;1.50;99.90
73643;DHT22;61938;48.652;9.292;2023-02-11T08:59:32;1.60;99.90
73643;DHT22;61938;48.652;9.292;2023-02-11T09:01:58;1.70;99.90
73643;DHT22;61938;48.652;9.292;2023-02-11T09:04:24;1.80;99.90
73643;DHT22;61938;48.652;9.292;2023-02-11T09:06:49;2.00;99.90
73643;DHT22;61938;48.652;9.292;2023-02-11T09:09:16;2.30;99.90
73643;DHT22;61938;48.652;9.292;2023-02-11T09:11:43;2.50;99.90
73643;DHT22;61938;48.652;9.292;2023-02-11T09:14:19;2.50;99.90
73643;DHT22;61938;48.652;9.292;2023-02-11T09:16:45;2.70;99.90
73643;DHT22;61938;48.652;9.292;2023-02-11T09:19:11;2.80;99.90
73643;DHT22;61938;48.652;9.292;2023-02-11T09:21:36;3.00;99.90
73643;DHT22;61938;48.652;9.292;2023-02-11T09:24:02;3.00;99.90
73643;DHT22;61938;48.652;9.292;2023-02-11T09:26:31;3.10;99.90
73643;DHT22;61938;48.652;9.292;2023-02-11T09:28:57;3.00;99.90
73643;DHT22;61938;48.652;9.292;2023-02-11T09:31:24;3.00;99.90
73643;DHT22;61938;48.652;9.292;2023-02-11T09:33:53;3.00;99.90
73643;DHT22;61938;48.652;9.292;2023-02-11T09:36:22;2.80;99.90
73643;DHT22;61938;48.652;9.292;2023-02-11T09:38:48;2.80;99.90
73643;DHT22;61938;48.652;9.292;2023-02-11T09:41:36;3.10;99.90
73643;DHT22;61938;48.652;9.292;2023-02-11T09:44:05;3.20;99.90
73643;DHT22;61938;48.652;9.292;2023-02-11T09:46:36;3.50;99.90
73643;DHT22;61938;48.652;9.292;2023-02-11T09:49:04;3.80;99.90
73643;DHT22;61938;48.652;9.292;2023-02-11T09:57:00;4.00;99.90
73643;DHT22;61938;48.652;9.292;2023-02-11T09:59:26;4.40;99.90
73643;DHT22;61938;48.652;9.292;2023-02-11T10:02:01;4.50;99.90
73643;DHT22;61938;48.652;9.292;2023-02-11T10:04:42;4.50;99.90
73643;DHT22;61938;48.652;9.292;2023-02-11T10:07:32;4.80;99.90
73643;DHT22;61938;48.652;9.292;2023-02-11T10:19:24;5.40;99.90
73643;DHT22;61938;48.652;9.292;2023-02-11T10:21:55;5.50;99.90
73643;DHT22;61938;48.652;9.292;2023-02-11T10:24:23;5.70;99.90
73643;DHT22;61938;48.652;9.292;2023-02-11T10:26:50;5.70;99.90
73643;DHT22;61938;48.652;9.292;2023-02-11T10:29:33;5.70;99.90
73643;DHT22;61938;48.652;9.292;2023-02-11T10:32:00;5.50;99.90
73643;DHT22;61938;48.652;9.292;2023-02-11T10:34:28;5.70;99.90
73643;DHT22;61938;48.652;9.292;2023-02-11T10:36:53;5.80;99.90
73643;DHT22;61938;48.652;9.292;2023-02-11T10:39:21;5.70;99.90
73643;DHT22;61938;48.652;9.292;2023-02-11T10:41:55;5.90;99.90
73643;DHT22;61938;48.652;9.292;2023-02-11T10:44:29;6.30;99.90
73643;DHT22;61938;48.652;9.292;2023-02-11T10:46:56;6.70;99.90
73643;DHT22;61938;48.652;9.292;2023-02-11T10:49:38;7.00;99.90
73643;DHT22;61938;48.652;9.292;2023-02-11T10:52:23;7.30;99.90
73643;DHT22;61938;48.652;9.292;2023-02-11T10:55:31;7.60;99.90
73643;DHT22;61938;48.652;9.292;2023-02-11T10:57:59;7.70;99.90
73643;DHT22;61938;48.652;9.292;2023-02-11T11:00:37;7.50;99.90
73643;DHT22;61938;48.652;9.292;2023-02-11T11:03:20;7.40;99.90
73643;DHT22;61938;48.652;9.292;2023-02-11T11:06:01;7.40;99.90
73643;DHT22;61938;48.652;9.292;2023-02-11T11:11:06;7.90;99.90
73643;DHT22;61938;48.652;9.292;2023-02-11T11:13:38;8.20;99.90
73643;DHT22;61938;48.652;9.292;2023-02-11T11:16:14;8.50;99.90
73643;DHT22;61938;48.652;9.292;2023-02-11T11:18:42;8.50;99.90
73643;DHT22;61938;48.652;9.292;2023-02-11T11:21:21;8.80;99.90
73643;DHT22;61938;48.652;9.292;2023-02-11T11:23:56;8.90;99.90
73643;DHT22;61938;48.652;9.292;2023-02-11T11:26:24;9.10;99.90
73643;DHT22;61938;48.652;9.292;2023-02-11T11:29:00;9.30;99.90
73643;DHT22;61938;48.652;9.292;2023-02-11T11:31:34;9.60;99.90
73643;DHT22;61938;48.652;9.292;2023-02-11T11:34:26;9.50;99.90
73643;DHT22;61938;48.652;9.292;2023-02-11T11:36:54;9.40;99.90
73643;DHT22;61938;48.652;9.292;2023-02-11T11:39:26;9.60;99.90
73643;DHT22;61938;48.652;9.292;2023-02-11T11:42:04;9.70;99.90
73643;DHT22;61938;48.652;9.292;2023-02-11T11:44:31;9.80;99.90
73643;DHT22;61938;48.652;9.292;2023-02-11T11:49:54;10.20;99.90
73643;DHT22;61938;48.652;9.292;2023-02-11T11:52:44;10.50;99.90
73643;DHT22;61938;48.652;9.292;2023-02-11T11:55:20;10.20;99.90
73643;DHT22;61938;48.652;9.292;2023-02-11T11:57:47;10.20;99.90
73643;DHT22;61938;48.652;9.292;2023-02-11T12:00:15;10.50;99.90
73643;DHT22;61938;48.652;9.292;2023-02-11T12:13:47;10.80;99.90
73643;DHT22;61938;48.652;9.292;2023-02-11T12:22:10;11.50;99.90
73643;DHT22;61938;48.652;9.292;2023-02-11T12:24:43;11.80;99.90
73643;DHT22;61938;48.652;9.292;2023-02-11T12:27:21;11.30;99.90
73643;DHT22;61938;48.652;9.292;2023-02-11T12:38:15;10.90;99.90
73643;DHT22;61938;48.652;9.292;2023-02-11T12:43:37;10.60;99.90
73643;DHT22;61938;48.652;9.292;2023-02-11T12:46:27;10.60;99.90
73643;DHT22;61938;48.652;9.292;2023-02-11T12:49:47;10.50;99.90
73643;DHT22;61938;48.652;9.292;2023-02-11T12:52:35;10.30;99.90
73643;DHT22;61938;48.652;9.292;2023-02-11T12:55:21;10.20;99.90
73643;DHT22;61938;48.652;9.292;2023-02-11T12:57:48;10.20;99.90
73643;DHT22;61938;48.652;9.292;2023-02-11T13:00:24;10.20;99.90
73643;DHT22;61938;48.652;9.292;2023-02-11T13:03:18;10.20;99.90
73643;DHT22;61938;48.652;9.292;2023-02-11T13:05:49;10.10;99.90
73643;DHT22;61938;48.652;9.292;2023-02-11T13:08:31;10.00;99.90
73643;DHT22;61938;48.652;9.292;2023-02-11T13:10:59;10.00;99.90
73643;DHT22;61938;48.652;9.292;2023-02-11T13:13:28;10.00;99.90
73643;DHT22;61938;48.652;9.292;2023-02-11T13:16:07;9.90;99.90
73643;DHT22;61938;48.652;9.292;2023-02-11T13:18:44;9.90;99.90
73643;DHT22;61938;48.652;9.292;2023-02-11T13:26:57;9.60;99.90
73643;DHT22;61938;48.652;9.292;2023-02-11T13:32:08;9.40;99.90
73643;DHT22;61938;48.652;9.292;2023-02-11T13:34:54;9.80;99.90
73643;DHT22;61938;48.652;9.292;2023-02-11T13:37:38;10.10;99.90
73643;DHT22;61938;48.652;9.292;2023-02-11T13:40:21;10.20;99.90
73643;DHT22;61938;48.652;9.292;2023-02-11T13:42:58;10.20;99.90
73643;DHT22;61938;48.652;9.292;2023-02-11T13:48:14;10.00;99.90
73643;DHT22;61938;48.652;9.292;2023-02-11T13:50:46;9.90;99.90
73643;DHT22;61938;48.652;9.292;2023-02-11T13:53:13;9.70;99.90
73643;DHT22;61938;48.652;9.292;2023-02-11T13:55:44;9.50;99.90
73643;DHT22;61938;48.652;9.292;2023-02-11T14:09:09;9.40;99.90
73643;DHT22;61938;48.652;9.292;2023-02-11T14:11:53;9.40;99.90
73643;DHT22;61938;48.652;9.292;2023-02-11T14:14:31;9.30;99.90
73643;DHT22;61938;48.652;9.292;2023-02-11T14:19:43;9.50;99.90
73643;DHT22;61938;48.652;9.292;2023-02-11T14:27:10;8.90;99.90
73643;DHT22;61938;48.652;9.292;2023-02-11T14:29:59;8.80;99.90
73643;DHT22;61938;48.652;9.292;2023-02-11T14:33:00;8.70;99.90
73643;DHT22;61938;48.652;9.292;2023-02-11T14:35:37;8.50;99.90
73643;DHT22;61938;48.652;9.292;2023-02-11T14:38:19;8.50;99.90
73643;DHT22;61938;48.652;9.292;2023-02-11T14:41:01;8.40;99.90
73643;DHT22;61938;48.652;9.292;2023-02-11T14:43:35;8.50;99.90
73643;DHT22;61938;48.652;9.292;2023-02-11T14:46:02;10.30;99.90
73643;DHT22;61938;48.652;9.292;2023-02-11T14:48:39;8.60;99.90
73643;DHT22;61938;48.652;9.292;2023-02-11T14:51:32;8.70;99.90
73643;DHT22;61938;48.652;9.292;2023-02-11T14:56:37;8.80;99.90
73643;DHT22;61938;48.652;9.292;2023-02-11T14:59:16;8.70;99.90
73643;DHT22;61938;48.652;9.292;2023-02-11T15:01:45;8.70;99.90
73643;DHT22;61938;48.652;9.292;2023-02-11T15:04:31;8.70;99.90
73643;DHT22;61938;48.652;9.292;2023-02-11T15:07:02;8.80;99.90
73643;DHT22;61938;48.652;9.292;2023-02-11T15:09:36;8.80;99.90
73643;DHT22;61938;48.652;9.292;2023-02-11T15:12:02;8.80;99.90
73643;DHT22;61938;48.652;9.292;2023-02-11T15:14:33;8.80;99.90
73643;DHT22;61938;48.652;9.292;2023-02-11T15:17:06;8.70;99.90
73643;DHT22;61938;48.652;9.292;2023-02-11T15:19:40;8.70;99.90
73643;DHT22;61938;48.652;9.292;2023-02-11T15:22:19;8.70;99.90
73643;DHT22;61938;48.652;9.292;2023-02-11T15:25:01;8.70;99.90
73643;DHT22;61938;48.652;9.292;2023-02-11T15:27:40;8.60;99.90
73643;DHT22;61938;48.652;9.292;2023-02-11T15:30:28;8.50;99.90
73643;DHT22;61938;48.652;9.292;2023-02-11T15:32:56;8.40;99.90
73643;DHT22;61938;48.652;9.292;2023-02-11T15:35:24;8.40;99.90
73643;DHT22;61938;48.652;9.292;2023-02-11T15:37:53;8.30;99.90
73643;DHT22;61938;48.652;9.292;2023-02-11T15:40:21;8.20;99.90
73643;DHT22;61938;48.652;9.292;2023-02-11T15:42:58;8.20;99.90
73643;DHT22;61938;48.652;9.292;2023-02-11T15:45:36;8.10;99.90
73643;DHT22;61938;48.652;9.292;2023-02-11T15:48:23;8.00;99.90
73643;DHT22;61938;48.652;9.292;2023-02-11T15:51:00;8.10;99.90
73643;DHT22;61938;48.652;9.292;2023-02-11T15:58:28;7.90;99.90
73643;DHT22;61938;48.652;9.292;2023-02-11T16:00:54;7.80;99.90
73643;DHT22;61938;48.652;9.292;2023-02-11T16:03:25;7.70;99.90
73643;DHT22;61938;48.652;9.292;2023-02-11T16:05:53;7.60;99.90
73643;DHT22;61938;48.652;9.292;2023-02-11T16:08:23;7.40;99.90
73643;DHT22;61938;48.652;9.292;2023-02-11T16:10:57;7.30;99.90
73643;DHT22;61938;48.652;9.292;2023-02-11T16:13:25;7.20;99.90
73643;DHT22;61938;48.652;9.292;2023-02-11T16:16:03;7.10;99.90
73643;DHT22;61938;48.652;9.292;2023-02-11T16:18:32;6.90;99.90
73643;DHT22;61938;48.652;9.292;2023-02-11T16:20:59;6.80;99.90
73643;DHT22;61938;48.652;9.292;2023-02-11T16:23:28;6.70;99.90
73643;DHT22;61938;48.652;9.292;2023-02-11T16:26:03;6.60;99.90
73643;DHT22;61938;48.652;9.292;2023-02-11T16:28:34;6.50;99.90
73643;DHT22;61938;48.652;9.292;2023-02-11T16:31:00;6.40;99.90
73643;DHT22;61938;48.652;9.292;2023-02-11T16:33:26;6.30;99.90
73643;DHT22;61938;48.652;9.292;2023-02-11T16:35:52;6.30;99.90
73643;DHT22;61938;48.652;9.292;2023-02-11T16:38:18;6.20;99.90
73643;DHT22;61938;48.652;9.292;2023-02-11T16:40:44;6.10;99.90
73643;DHT22;61938;48.652;9.292;2023-02-11T16:43:13;6.00;99.90
73643;DHT22;61938;48.652;9.292;2023-02-11T16:45:39;6.00;99.90
73643;DHT22;61938;48.652;9.292;2023-02-11T16:48:08;5.90;99.90
73643;DHT22;61938;48.652;9.292;2023-02-11T16:50:34;5.80;99.90
73643;DHT22;61938;48.652;9.292;2023-02-11T16:53:00;5.70;99.90
73643;DHT22;61938;48.652;9.292;2023-02-11T16:55:31;5.70;99.90
73643;DHT22;61938;48.652;9.292;2023-02-11T16:57:56;5.80;99.90
73643;DHT22;61938;48.652;9.292;2023-02-11T17:00:22;5.70;99.90
73643;DHT22;61938;48.652;9.292;2023-02-11T17:02:48;5.70;99.90
73643;DHT22;61938;48.652;9.292;2023-02-11T17:05:20;5.60;99.90
73643;DHT22;61938;48.652;9.292;2023-02-11T17:07:50;5.70;99.90
73643;DHT22;61938;48.652;9.292;2023-02-11T17:10:21;5.70;99.90
73643;DHT22;61938;48.652;9.292;2023-02-11T17:12:59;5.70;99.90
73643;DHT22;61938;48.652;9.292;2023-02-11T17:15:26;5.70;99.90
73643;DHT22;61938;48.652;9.292;2023-02-11T17:17:51;5.70;99.90
73643;DHT22;61938;48.652;9.292;2023-02-11T17:20:17;5.70;99.90
73643;DHT22;61938;48.652;9.292;2023-02-11T17:22:43;5.80;99.90
73643;DHT22;61938;48.652;9.292;2023-02-11T17:25:08;5.80;99.90
73643;DHT22;61938;48.652;9.292;2023-02-11T17:27:34;5.80;99.90
73643;DHT22;61938;48.652;9.292;2023-02-11T17:30:00;5.70;99.90
73643;DHT22;61938;48.652;9.292;2023-02-11T17:32:26;5.70;99.90
73643;DHT22;61938;48.652;9.292;2023-02-11T17:34:52;5.80;99.90
73643;DHT22;61938;48.652;9.292;2023-02-11T17:37:18;5.60;99.90
73643;DHT22;61938;48.652;9.292;2023-02-11T17:39:43;5.70;99.90
73643;DHT22;61938;48.652;9.292;2023-02-11T17:42:09;5.60;99.90
73643;DHT22;61938;48.652;9.292;2023-02-11T17:44:36;5.60;99.90